sensor_id;sensor_type;location;lat;lon;timestamp;temperature;humidity
35920;DHT22;36160;53.370;-6.196;2022-10-31T00:01:32;12.90;99.90
35920;DHT22;36160;53.370;-6.196;2022-10-31T00:03:58;12.90;99.90
35920;DHT22;36160;53.370;-6.196;2022-10-31T00:06:24;12.90;99.90
35920;DHT22;36160;53.370;-6.196;2022-10-31T00:08:55;13.10;99.90
35920;DHT22;36160;53.370;-6.196;2022-10-31T00:11:22;13.00;99.90
35920;DHT22;36160;53.370;-6.196;2022-10-31T00:13:48;13.00;99.90
35920;DHT22;36160;53.370;-6.196;2022-10-31T00:16:19;13.10;99.90
35920;DHT22;36160;53.370;-6.196;2022-10-31T00:18:51;13.10;99.90
35920;DHT22;36160;53.370;-6.196;2022-10-31T00:21:18;13.20;99.90
35920;DHT22;36160;53.370;-6.196;2022-10-31T00:23:44;13.20;99.90
35920;DHT22;36160;53.370;-6.196;2022-10-31T00:26:09;13.30;99.90
35920;DHT22;36160;53.370;-6.196;2022-10-31T00:28:35;13.10;99.90
35920;DHT22;36160;53.370;-6.196;2022-10-31T00:31:03;13.10;99.90
35920;DHT22;36160;53.370;-6.196;2022-10-31T00:33:29;13.10;99.90
35920;DHT22;36160;53.370;-6.196;2022-10-31T00:35:55;13.10;99.90
35920;DHT22;36160;53.370;-6.196;2022-10-31T00:38:21;13.20;99.90
35920;DHT22;36160;53.370;-6.196;2022-10-31T00:40:47;13.20;99.90
35920;DHT22;36160;53.370;-6.196;2022-10-31T00:43:12;13.30;99.90
35920;DHT22;36160;53.370;-6.196;2022-10-31T00:45:38;13.20;99.90
35920;DHT22;36160;53.370;-6.196;2022-10-31T00:48:04;13.20;99.90
35920;DHT22;36160;53.370;-6.196;2022-10-31T00:50:30;13.20;99.90
35920;DHT22;36160;53.370;-6.196;2022-10-31T00:52:55;13.20;99.90
35920;DHT22;36160;53.370;-6.196;2022-10-31T00:55:22;13.20;99.90
35920;DHT22;36160;53.370;-6.196;2022-10-31T00:57:47;13.10;99.90
35920;DHT22;36160;53.370;-6.196;2022-10-31T01:00:14;13.10;99.90
35920;DHT22;36160;53.370;-6.196;2022-10-31T01:02:40;13.10;99.90
35920;DHT22;36160;53.370;-6.196;2022-10-31T01:05:06;13.30;99.90
35920;DHT22;36160;53.370;-6.196;2022-10-31T01:07:35;13.30;99.90
35920;DHT22;36160;53.370;-6.196;2022-10-31T01:10:01;13.30;99.90
35920;DHT22;36160;53.370;-6.196;2022-10-31T01:12:26;13.30;99.90
35920;DHT22;36160;53.370;-6.196;2022-10-31T01:14:52;13.20;99.90
35920;DHT22;36160;53.370;-6.196;2022-10-31T01:17:18;13.20;99.90
35920;DHT22;36160;53.370;-6.196;2022-10-31T01:19:44;13.30;99.90
35920;DHT22;36160;53.370;-6.196;2022-10-31T01:22:10;13.20;99.90
35920;DHT22;36160;53.370;-6.196;2022-10-31T01:24:36;13.30;99.90
35920;DHT22;36160;53.370;-6.196;2022-10-31T01:27:02;13.40;99.90
35920;DHT22;36160;53.370;-6.196;2022-10-31T01:29:28;13.40;99.90
35920;DHT22;36160;53.370;-6.196;2022-10-31T01:31:53;13.50;99.90
35920;DHT22;36160;53.370;-6.196;2022-10-31T01:34:19;13.50;99.90
35920;DHT22;36160;53.370;-6.196;2022-10-31T01:36:45;13.50;99.90
35920;DHT22;36160;53.370;-6.196;2022-10-31T01:39:14;13.60;99.90
35920;DHT22;36160;53.370;-6.196;2022-10-31T01:41:46;13.50;99.90
35920;DHT22;36160;53.370;-6.196;2022-10-31T01:47:23;13.60;99.90
35920;DHT22;36160;53.370;-6.196;2022-10-31T01:49:48;13.50;99.90
35920;DHT22;36160;53.370;-6.196;2022-10-31T01:52:20;13.50;99.90
35920;DHT22;36160;53.370;-6.196;2022-10-31T01:57:22;13.40;99.90
35920;DHT22;36160;53.370;-6.196;2022-10-31T01:59:52;13.30;99.90
35920;DHT22;36160;53.370;-6.196;2022-10-31T02:02:19;13.30;99.90
35920;DHT22;36160;53.370;-6.196;2022-10-31T02:04:45;13.40;99.90
35920;DHT22;36160;53.370;-6.196;2022-10-31T02:07:16;13.30;99.90
35920;DHT22;36160;53.370;-6.196;2022-10-31T02:09:43;13.30;99.90
35920;DHT22;36160;53.370;-6.196;2022-10-31T02:12:10;13.10;99.90
35920;DHT22;36160;53.370;-6.196;2022-10-31T02:14:37;13.10;99.90
35920;DHT22;36160;53.370;-6.196;2022-10-31T02:17:04;13.10;99.90
35920;DHT22;36160;53.370;-6.196;2022-10-31T02:33:43;13.10;99.90
35920;DHT22;36160;53.370;-6.196;2022-10-31T02:36:22;13.10;99.90
35920;DHT22;36160;53.370;-6.196;2022-10-31T02:39:12;13.20;99.90
35920;DHT22;36160;53.370;-6.196;2022-10-31T02:42:21;13.10;99.90
35920;DHT22;36160;53.370;-6.196;2022-10-31T02:47:44;13.00;99.90
35920;DHT22;36160;53.370;-6.196;2022-10-31T02:50:25;13.00;99.90
35920;DHT22;36160;53.370;-6.196;2022-10-31T02:52:52;13.10;99.90
35920;DHT22;36160;53.370;-6.196;2022-10-31T02:58:02;13.10;99.90
35920;DHT22;36160;53.370;-6.196;2022-10-31T03:00:33;13.00;99.90
35920;DHT22;36160;53.370;-6.196;2022-10-31T03:18:43;13.10;99.90
35920;DHT22;36160;53.370;-6.196;2022-10-31T03:21:20;13.10;99.90
35920;DHT22;36160;53.370;-6.196;2022-10-31T03:23:50;13.10;99.90
35920;DHT22;36160;53.370;-6.196;2022-10-31T03:26:17;13.20;99.90
35920;DHT22;36160;53.370;-6.196;2022-10-31T03:28:55;13.20;99.90
35920;DHT22;36160;53.370;-6.196;2022-10-31T03:31:26;13.10;99.90
35920;DHT22;36160;53.370;-6.196;2022-10-31T03:33:56;13.20;99.90
35920;DHT22;36160;53.370;-6.196;2022-10-31T03:36:24;13.20;99.90
35920;DHT22;36160;53.370;-6.196;2022-10-31T03:38:52;13.30;99.90
35920;DHT22;36160;53.370;-6.196;2022-10-31T03:41:22;13.40;99.90
35920;DHT22;36160;53.370;-6.196;2022-10-31T03:43:55;13.30;99.90
35920;DHT22;36160;53.370;-6.196;2022-10-31T03:46:22;13.40;99.90
35920;DHT22;36160;53.370;-6.196;2022-10-31T03:48:48;13.50;99.90
35920;DHT22;36160;53.370;-6.196;2022-10-31T03:54:08;13.50;99.90
35920;DHT22;36160;53.370;-6.196;2022-10-31T03:56:40;13.50;99.90
35920;DHT22;36160;53.370;-6.196;2022-10-31T03:59:22;13.60;99.90
35920;DHT22;36160;53.370;-6.196;2022-10-31T04:01:52;13.50;99.90
35920;DHT22;36160;53.370;-6.196;2022-10-31T04:04:19;13.40;99.90
35920;DHT22;36160;53.370;-6.196;2022-10-31T04:06:46;13.50;99.90
35920;DHT22;36160;53.370;-6.196;2022-10-31T04:09:13;13.60;99.90
35920;DHT22;36160;53.370;-6.196;2022-10-31T04:11:45;13.60;99.90
35920;DHT22;36160;53.370;-6.196;2022-10-31T04:14:11;13.60;99.90
35920;DHT22;36160;53.370;-6.196;2022-10-31T04:16:41;13.60;99.90
35920;DHT22;36160;53.370;-6.196;2022-10-31T04:19:09;13.60;99.90
35920;DHT22;36160;53.370;-6.196;2022-10-31T04:21:35;13.60;99.90
35920;DHT22;36160;53.370;-6.196;2022-10-31T04:24:00;13.70;99.90
35920;DHT22;36160;53.370;-6.196;2022-10-31T04:26:26;13.60;99.90
35920;DHT22;36160;53.370;-6.196;2022-10-31T04:28:52;13.50;99.90
35920;DHT22;36160;53.370;-6.196;2022-10-31T04:31:18;13.50;99.90
35920;DHT22;36160;53.370;-6.196;2022-10-31T04:33:43;13.60;99.90
35920;DHT22;36160;53.370;-6.196;2022-10-31T04:36:09;13.60;99.90
35920;DHT22;36160;53.370;-6.196;2022-10-31T04:38:35;13.60;99.90
35920;DHT22;36160;53.370;-6.196;2022-10-31T04:41:01;13.80;99.90
35920;DHT22;36160;53.370;-6.196;2022-10-31T04:43:26;13.70;99.90
35920;DHT22;36160;53.370;-6.196;2022-10-31T04:45:52;13.60;99.90
35920;DHT22;36160;53.370;-6.196;2022-10-31T04:48:18;13.60;99.90
35920;DHT22;36160;53.370;-6.196;2022-10-31T04:50:43;13.70;99.90
35920;DHT22;36160;53.370;-6.196;2022-10-31T04:53:09;13.50;99.90
35920;DHT22;36160;53.370;-6.196;2022-10-31T04:55:35;13.50;99.90
35920;DHT22;36160;53.370;-6.196;2022-10-31T04:58:02;13.40;99.90
35920;DHT22;36160;53.370;-6.196;2022-10-31T05:00:28;13.30;99.90
35920;DHT22;36160;53.370;-6.196;2022-10-31T05:02:56;13.40;99.90
35920;DHT22;36160;53.370;-6.196;2022-10-31T05:05:24;13.40;99.90
35920;DHT22;36160;53.370;-6.196;2022-10-31T05:07:51;13.40;99.90
35920;DHT22;36160;53.370;-6.196;2022-10-31T05:10:19;13.40;99.90
35920;DHT22;36160;53.370;-6.196;2022-10-31T05:12:50;13.50;99.90
35920;DHT22;36160;53.370;-6.196;2022-10-31T05:15:16;13.50;99.90
35920;DHT22;36160;53.370;-6.196;2022-10-31T05:17:43;13.50;99.90
35920;DHT22;36160;53.370;-6.196;2022-10-31T05:20:10;13.50;99.90
35920;DHT22;36160;53.370;-6.196;2022-10-31T05:22:36;13.50;99.90
35920;DHT22;36160;53.370;-6.196;2022-10-31T05:25:02;13.60;99.90
35920;DHT22;36160;53.370;-6.196;2022-10-31T05:27:28;13.60;99.90
35920;DHT22;36160;53.370;-6.196;2022-10-31T05:29:54;13.60;99.90
35920;DHT22;36160;53.370;-6.196;2022-10-31T05:32:19;13.60;99.90
35920;DHT22;36160;53.370;-6.196;2022-10-31T05:34:45;13.70;99.90
35920;DHT22;36160;53.370;-6.196;2022-10-31T05:37:10;13.80;99.90
35920;DHT22;36160;53.370;-6.196;2022-10-31T05:39:36;13.70;99.90
35920;DHT22;36160;53.370;-6.196;2022-10-31T05:42:02;13.80;99.90
35920;DHT22;36160;53.370;-6.196;2022-10-31T05:44:28;13.80;99.90
35920;DHT22;36160;53.370;-6.196;2022-10-31T05:46:53;13.80;99.90
35920;DHT22;36160;53.370;-6.196;2022-10-31T05:49:19;13.80;99.90
35920;DHT22;36160;53.370;-6.196;2022-10-31T05:51:45;13.70;99.90
35920;DHT22;36160;53.370;-6.196;2022-10-31T05:54:10;13.90;99.90
35920;DHT22;36160;53.370;-6.196;2022-10-31T05:56:36;13.80;99.90
35920;DHT22;36160;53.370;-6.196;2022-10-31T05:59:02;13.80;99.90
35920;DHT22;36160;53.370;-6.196;2022-10-31T06:01:27;13.90;99.90
35920;DHT22;36160;53.370;-6.196;2022-10-31T06:03:53;13.80;99.90
35920;DHT22;36160;53.370;-6.196;2022-10-31T06:06:18;13.90;99.90
35920;DHT22;36160;53.370;-6.196;2022-10-31T06:08:44;13.80;99.90
35920;DHT22;36160;53.370;-6.196;2022-10-31T06:11:10;13.90;99.90
35920;DHT22;36160;53.370;-6.196;2022-10-31T06:13:35;13.90;99.90
35920;DHT22;36160;53.370;-6.196;2022-10-31T06:16:01;14.10;99.90
35920;DHT22;36160;53.370;-6.196;2022-10-31T06:18:26;13.90;99.90
35920;DHT22;36160;53.370;-6.196;2022-10-31T06:20:52;13.90;99.90
35920;DHT22;36160;53.370;-6.196;2022-10-31T06:23:18;14.10;99.90
35920;DHT22;36160;53.370;-6.196;2022-10-31T06:25:48;14.00;99.90
35920;DHT22;36160;53.370;-6.196;2022-10-31T06:28:14;14.00;99.90
35920;DHT22;36160;53.370;-6.196;2022-10-31T06:30:40;14.00;99.90
35920;DHT22;36160;53.370;-6.196;2022-10-31T06:33:05;13.90;99.90
35920;DHT22;36160;53.370;-6.196;2022-10-31T06:35:31;14.00;99.90
35920;DHT22;36160;53.370;-6.196;2022-10-31T06:37:57;13.90;99.90
35920;DHT22;36160;53.370;-6.196;2022-10-31T06:40:23;13.90;99.90
35920;DHT22;36160;53.370;-6.196;2022-10-31T06:42:56;13.80;99.90
35920;DHT22;36160;53.370;-6.196;2022-10-31T06:45:22;13.70;99.90
35920;DHT22;36160;53.370;-6.196;2022-10-31T06:47:55;13.70;99.90
35920;DHT22;36160;53.370;-6.196;2022-10-31T06:50:21;13.70;99.90
35920;DHT22;36160;53.370;-6.196;2022-10-31T06:53:06;13.80;99.90
35920;DHT22;36160;53.370;-6.196;2022-10-31T06:55:31;13.80;99.90
35920;DHT22;36160;53.370;-6.196;2022-10-31T06:58:00;13.80;99.90
35920;DHT22;36160;53.370;-6.196;2022-10-31T07:00:28;13.70;99.90
35920;DHT22;36160;53.370;-6.196;2022-10-31T07:03:00;13.90;99.90
35920;DHT22;36160;53.370;-6.196;2022-10-31T07:05:27;13.90;99.90
35920;DHT22;36160;53.370;-6.196;2022-10-31T07:07:58;13.90;99.90
35920;DHT22;36160;53.370;-6.196;2022-10-31T07:10:25;14.00;99.90
35920;DHT22;36160;53.370;-6.196;2022-10-31T07:12:56;13.90;99.90
35920;DHT22;36160;53.370;-6.196;2022-10-31T07:15:22;13.90;99.90
35920;DHT22;36160;53.370;-6.196;2022-10-31T07:17:48;13.90;99.90
35920;DHT22;36160;53.370;-6.196;2022-10-31T07:20:14;14.00;99.90
35920;DHT22;36160;53.370;-6.196;2022-10-31T07:22:39;14.00;99.90
35920;DHT22;36160;53.370;-6.196;2022-10-31T07:25:05;14.10;99.90
35920;DHT22;36160;53.370;-6.196;2022-10-31T07:27:42;14.10;99.90
35920;DHT22;36160;53.370;-6.196;2022-10-31T07:30:09;14.10;99.90
35920;DHT22;36160;53.370;-6.196;2022-10-31T07:32:44;14.10;99.90
35920;DHT22;36160;53.370;-6.196;2022-10-31T07:35:12;14.10;99.90
35920;DHT22;36160;53.370;-6.196;2022-10-31T07:37:38;14.10;99.90
35920;DHT22;36160;53.370;-6.196;2022-10-31T07:40:05;14.10;99.90
35920;DHT22;36160;53.370;-6.196;2022-10-31T07:42:38;14.10;99.90
35920;DHT22;36160;53.370;-6.196;2022-10-31T07:45:06;14.10;99.90
35920;DHT22;36160;53.370;-6.196;2022-10-31T07:47:43;14.10;99.90
35920;DHT22;36160;53.370;-6.196;2022-10-31T07:50:11;14.20;99.90
35920;DHT22;36160;53.370;-6.196;2022-10-31T07:52:37;14.20;99.90
35920;DHT22;36160;53.370;-6.196;2022-10-31T07:55:04;14.30;99.90
35920;DHT22;36160;53.370;-6.196;2022-10-31T07:57:30;14.20;99.90
35920;DHT22;36160;53.370;-6.196;2022-10-31T07:59:56;14.20;99.90
35920;DHT22;36160;53.370;-6.196;2022-10-31T08:02:21;14.20;99.90
35920;DHT22;36160;53.370;-6.196;2022-10-31T08:04:47;14.20;99.90
35920;DHT22;36160;53.370;-6.196;2022-10-31T08:07:13;14.30;99.90
35920;DHT22;36160;53.370;-6.196;2022-10-31T08:09:39;14.20;99.90
35920;DHT22;36160;53.370;-6.196;2022-10-31T08:12:05;14.20;99.90
35920;DHT22;36160;53.370;-6.196;2022-10-31T08:14:30;14.30;99.90
35920;DHT22;36160;53.370;-6.196;2022-10-31T08:16:56;14.20;99.90
35920;DHT22;36160;53.370;-6.196;2022-10-31T08:19:22;14.20;99.90
35920;DHT22;36160;53.370;-6.196;2022-10-31T08:21:51;14.30;99.90
35920;DHT22;36160;53.370;-6.196;2022-10-31T08:24:17;14.30;99.90
35920;DHT22;36160;53.370;-6.196;2022-10-31T08:26:42;14.30;99.90
35920;DHT22;36160;53.370;-6.196;2022-10-31T08:29:08;14.40;99.90
35920;DHT22;36160;53.370;-6.196;2022-10-31T08:31:34;14.50;99.90
35920;DHT22;36160;53.370;-6.196;2022-10-31T08:34:00;14.50;99.90
35920;DHT22;36160;53.370;-6.196;2022-10-31T08:36:27;14.50;99.90
35920;DHT22;36160;53.370;-6.196;2022-10-31T08:38:53;14.50;99.90
35920;DHT22;36160;53.370;-6.196;2022-10-31T08:41:18;14.60;99.90
35920;DHT22;36160;53.370;-6.196;2022-10-31T08:43:44;14.50;99.90
35920;DHT22;36160;53.370;-6.196;2022-10-31T08:46:10;14.50;99.90
35920;DHT22;36160;53.370;-6.196;2022-10-31T08:48:36;14.50;99.90
35920;DHT22;36160;53.370;-6.196;2022-10-31T08:51:02;14.50;99.90
35920;DHT22;36160;53.370;-6.196;2022-10-31T08:53:27;14.60;99.90
35920;DHT22;36160;53.370;-6.196;2022-10-31T08:55:55;14.60;99.90
35920;DHT22;36160;53.370;-6.196;2022-10-31T08:58:22;14.60;99.90
35920;DHT22;36160;53.370;-6.196;2022-10-31T09:00:50;14.60;99.90
35920;DHT22;36160;53.370;-6.196;2022-10-31T09:03:19;14.80;99.90
35920;DHT22;36160;53.370;-6.196;2022-10-31T09:05:44;14.90;99.90
35920;DHT22;36160;53.370;-6.196;2022-10-31T09:08:11;14.90;99.90
35920;DHT22;36160;53.370;-6.196;2022-10-31T09:10:38;14.90;99.90
35920;DHT22;36160;53.370;-6.196;2022-10-31T09:13:13;14.80;99.90
35920;DHT22;36160;53.370;-6.196;2022-10-31T09:15:40;14.80;99.90
35920;DHT22;36160;53.370;-6.196;2022-10-31T09:18:07;14.70;99.90
35920;DHT22;36160;53.370;-6.196;2022-10-31T09:20:35;14.70;99.90
35920;DHT22;36160;53.370;-6.196;2022-10-31T09:23:06;14.80;99.90
35920;DHT22;36160;53.370;-6.196;2022-10-31T09:25:33;14.70;99.90
35920;DHT22;36160;53.370;-6.196;2022-10-31T09:28:00;14.70;99.90
35920;DHT22;36160;53.370;-6.196;2022-10-31T09:30:27;14.70;99.90
35920;DHT22;36160;53.370;-6.196;2022-10-31T09:32:58;14.70;99.90
35920;DHT22;36160;53.370;-6.196;2022-10-31T09:35:24;14.70;99.90
35920;DHT22;36160;53.370;-6.196;2022-10-31T09:37:57;14.70;99.90
35920;DHT22;36160;53.370;-6.196;2022-10-31T09:46:49;14.60;99.90
35920;DHT22;36160;53.370;-6.196;2022-10-31T09:51:47;14.80;99.90
35920;DHT22;36160;53.370;-6.196;2022-10-31T09:54:28;14.80;99.90
35920;DHT22;36160;53.370;-6.196;2022-10-31T09:56:57;14.70;99.90
35920;DHT22;36160;53.370;-6.196;2022-10-31T09:59:38;14.90;99.90
35920;DHT22;36160;53.370;-6.196;2022-10-31T10:02:25;14.70;99.90
35920;DHT22;36160;53.370;-6.196;2022-10-31T10:05:02;14.90;99.90
35920;DHT22;36160;53.370;-6.196;2022-10-31T10:10:00;14.80;99.90
35920;DHT22;36160;53.370;-6.196;2022-10-31T10:18:14;15.10;99.90
35920;DHT22;36160;53.370;-6.196;2022-10-31T10:26:21;15.30;99.90
35920;DHT22;36160;53.370;-6.196;2022-10-31T10:28:54;15.30;99.90
35920;DHT22;36160;53.370;-6.196;2022-10-31T10:31:26;15.40;99.90
35920;DHT22;36160;53.370;-6.196;2022-10-31T10:37:00;15.40;99.90
35920;DHT22;36160;53.370;-6.196;2022-10-31T10:39:29;15.50;99.90
35920;DHT22;36160;53.370;-6.196;2022-10-31T10:41:55;15.50;99.90
35920;DHT22;36160;53.370;-6.196;2022-10-31T10:44:45;15.60;99.90
35920;DHT22;36160;53.370;-6.196;2022-10-31T10:47:42;15.70;99.90
35920;DHT22;36160;53.370;-6.196;2022-10-31T10:50:21;15.80;95.10
35920;DHT22;36160;53.370;-6.196;2022-10-31T10:58:40;16.00;97.30
35920;DHT22;36160;53.370;-6.196;2022-10-31T11:01:15;16.10;97.90
35920;DHT22;36160;53.370;-6.196;2022-10-31T11:03:41;16.10;97.50
35920;DHT22;36160;53.370;-6.196;2022-10-31T11:06:18;16.10;98.30
35920;DHT22;36160;53.370;-6.196;2022-10-31T11:08:47;16.30;99.90
35920;DHT22;36160;53.370;-6.196;2022-10-31T11:11:23;16.40;98.70
35920;DHT22;36160;53.370;-6.196;2022-10-31T11:13:57;16.50;96.10
35920;DHT22;36160;53.370;-6.196;2022-10-31T11:18:51;16.70;95.10
35920;DHT22;36160;53.370;-6.196;2022-10-31T11:21:27;16.60;94.00
35920;DHT22;36160;53.370;-6.196;2022-10-31T11:24:04;16.70;96.50
35920;DHT22;36160;53.370;-6.196;2022-10-31T11:26:29;16.60;94.70
35920;DHT22;36160;53.370;-6.196;2022-10-31T11:28:59;16.70;94.40
35920;DHT22;36160;53.370;-6.196;2022-10-31T11:31:25;16.60;96.30
35920;DHT22;36160;53.370;-6.196;2022-10-31T11:34:00;16.70;95.60
35920;DHT22;36160;53.370;-6.196;2022-10-31T11:36:37;16.70;95.00
35920;DHT22;36160;53.370;-6.196;2022-10-31T11:39:05;16.70;95.10
35920;DHT22;36160;53.370;-6.196;2022-10-31T11:41:36;16.90;95.20
35920;DHT22;36160;53.370;-6.196;2022-10-31T11:44:25;16.90;93.40
35920;DHT22;36160;53.370;-6.196;2022-10-31T11:46:57;17.00;92.00
35920;DHT22;36160;53.370;-6.196;2022-10-31T11:49:36;16.90;90.40
35920;DHT22;36160;53.370;-6.196;2022-10-31T11:52:27;16.80;89.40
35920;DHT22;36160;53.370;-6.196;2022-10-31T11:54:54;16.80;94.30
35920;DHT22;36160;53.370;-6.196;2022-10-31T11:59:59;16.90;91.10
35920;DHT22;36160;53.370;-6.196;2022-10-31T12:02:25;16.70;92.00
35920;DHT22;36160;53.370;-6.196;2022-10-31T12:05:36;16.70;92.60
35920;DHT22;36160;53.370;-6.196;2022-10-31T12:07:58;16.80;92.90
35920;DHT22;36160;53.370;-6.196;2022-10-31T12:10:30;16.80;94.30
35920;DHT22;36160;53.370;-6.196;2022-10-31T12:13:34;16.70;94.40
35920;DHT22;36160;53.370;-6.196;2022-10-31T12:16:12;16.80;92.70
35920;DHT22;36160;53.370;-6.196;2022-10-31T12:18:45;16.70;92.50
35920;DHT22;36160;53.370;-6.196;2022-10-31T12:21:19;16.80;91.10
35920;DHT22;36160;53.370;-6.196;2022-10-31T12:24:05;16.90;91.70
35920;DHT22;36160;53.370;-6.196;2022-10-31T12:29:26;16.90;91.30
35920;DHT22;36160;53.370;-6.196;2022-10-31T12:44:05;16.60;90.20
35920;DHT22;36160;53.370;-6.196;2022-10-31T12:46:54;16.60;91.20
35920;DHT22;36160;53.370;-6.196;2022-10-31T12:49:27;16.50;90.60
35920;DHT22;36160;53.370;-6.196;2022-10-31T13:00:17;16.30;94.90
35920;DHT22;36160;53.370;-6.196;2022-10-31T13:13:26;16.00;99.90
35920;DHT22;36160;53.370;-6.196;2022-10-31T13:16:13;16.00;99.90
35920;DHT22;36160;53.370;-6.196;2022-10-31T13:18:44;16.00;99.90
35920;DHT22;36160;53.370;-6.196;2022-10-31T13:24:13;15.80;99.90
35920;DHT22;36160;53.370;-6.196;2022-10-31T13:26:54;15.70;99.90
35920;DHT22;36160;53.370;-6.196;2022-10-31T13:29:33;15.80;99.90
35920;DHT22;36160;53.370;-6.196;2022-10-31T13:32:05;15.60;99.90
35920;DHT22;36160;53.370;-6.196;2022-10-31T13:34:35;15.50;99.90
35920;DHT22;36160;53.370;-6.196;2022-10-31T13:40:01;15.50;99.90
35920;DHT22;36160;53.370;-6.196;2022-10-31T13:45:20;15.60;99.90
35920;DHT22;36160;53.370;-6.196;2022-10-31T13:50:25;15.60;99.90
35920;DHT22;36160;53.370;-6.196;2022-10-31T13:52:51;15.70;99.90
35920;DHT22;36160;53.370;-6.196;2022-10-31T13:55:43;15.60;99.90
35920;DHT22;36160;53.370;-6.196;2022-10-31T13:58:26;15.70;99.90
35920;DHT22;36160;53.370;-6.196;2022-10-31T14:03:43;15.60;99.90
35920;DHT22;36160;53.370;-6.196;2022-10-31T14:06:10;15.70;99.90
35920;DHT22;36160;53.370;-6.196;2022-10-31T14:08:41;15.60;99.90
35920;DHT22;36160;53.370;-6.196;2022-10-31T14:11:22;15.60;99.90
35920;DHT22;36160;53.370;-6.196;2022-10-31T14:13:49;15.60;99.90
35920;DHT22;36160;53.370;-6.196;2022-10-31T14:19:08;15.70;99.90
35920;DHT22;36160;53.370;-6.196;2022-10-31T14:21:42;15.70;99.90
35920;DHT22;36160;53.370;-6.196;2022-10-31T14:26:54;15.50;99.90
35920;DHT22;36160;53.370;-6.196;2022-10-31T14:29:32;15.50;99.90
35920;DHT22;36160;53.370;-6.196;2022-10-31T14:49:14;15.60;95.90
35920;DHT22;36160;53.370;-6.196;2022-10-31T14:51:46;15.50;99.90
35920;DHT22;36160;53.370;-6.196;2022-10-31T14:54:15;15.50;99.90
35920;DHT22;36160;53.370;-6.196;2022-10-31T14:57:05;15.50;99.90
35920;DHT22;36160;53.370;-6.196;2022-10-31T14:59:36;15.60;99.90
35920;DHT22;36160;53.370;-6.196;2022-10-31T15:02:26;15.30;99.90
35920;DHT22;36160;53.370;-6.196;2022-10-31T15:04:54;15.40;99.90
35920;DHT22;36160;53.370;-6.196;2022-10-31T15:07:25;15.30;99.90
35920;DHT22;36160;53.370;-6.196;2022-10-31T15:10:04;15.30;99.90
35920;DHT22;36160;53.370;-6.196;2022-10-31T15:12:32;15.20;99.90
35920;DHT22;36160;53.370;-6.196;2022-10-31T15:15:10;15.20;99.90
35920;DHT22;36160;53.370;-6.196;2022-10-31T15:17:36;15.20;99.90
35920;DHT22;36160;53.370;-6.196;2022-10-31T15:20:09;15.20;99.90
35920;DHT22;36160;53.370;-6.196;2022-10-31T15:22:35;15.10;99.90
35920;DHT22;36160;53.370;-6.196;2022-10-31T15:25:01;15.10;99.90
35920;DHT22;36160;53.370;-6.196;2022-10-31T15:27:27;14.90;99.90
35920;DHT22;36160;53.370;-6.196;2022-10-31T15:29:55;15.00;99.90
35920;DHT22;36160;53.370;-6.196;2022-10-31T15:34:49;14.90;99.90
35920;DHT22;36160;53.370;-6.196;2022-10-31T15:37:18;14.80;99.90
35920;DHT22;36160;53.370;-6.196;2022-10-31T15:39:44;14.80;99.90
35920;DHT22;36160;53.370;-6.196;2022-10-31T15:42:32;14.80;99.90
35920;DHT22;36160;53.370;-6.196;2022-10-31T15:45:27;14.70;99.90
35920;DHT22;36160;53.370;-6.196;2022-10-31T15:48:04;14.60;99.90
35920;DHT22;36160;53.370;-6.196;2022-10-31T15:50:40;14.50;99.90
35920;DHT22;36160;53.370;-6.196;2022-10-31T15:53:18;14.40;99.90
35920;DHT22;36160;53.370;-6.196;2022-10-31T15:55:54;14.30;99.90
35920;DHT22;36160;53.370;-6.196;2022-10-31T15:58:20;14.20;99.90
35920;DHT22;36160;53.370;-6.196;2022-10-31T16:00:57;14.30;99.90
35920;DHT22;36160;53.370;-6.196;2022-10-31T16:03:26;14.30;99.90
35920;DHT22;36160;53.370;-6.196;2022-10-31T16:05:55;14.20;99.90
35920;DHT22;36160;53.370;-6.196;2022-10-31T16:08:32;14.10;99.90
35920;DHT22;36160;53.370;-6.196;2022-10-31T16:11:13;14.20;99.90
35920;DHT22;36160;53.370;-6.196;2022-10-31T16:14:00;14.10;99.90
35920;DHT22;36160;53.370;-6.196;2022-10-31T16:16:28;14.20;99.90
35920;DHT22;36160;53.370;-6.196;2022-10-31T16:18:55;14.10;99.90
35920;DHT22;36160;53.370;-6.196;2022-10-31T16:21:39;14.10;99.90
35920;DHT22;36160;53.370;-6.196;2022-10-31T16:26:52;14.00;99.90
35920;DHT22;36160;53.370;-6.196;2022-10-31T16:31:53;13.80;99.90
35920;DHT22;36160;53.370;-6.196;2022-10-31T16:34:22;13.70;99.90
35920;DHT22;36160;53.370;-6.196;2022-10-31T16:36:48;13.60;99.90
35920;DHT22;36160;53.370;-6.196;2022-10-31T16:39:14;13.70;99.90
35920;DHT22;36160;53.370;-6.196;2022-10-31T16:41:41;13.70;99.90
35920;DHT22;36160;53.370;-6.196;2022-10-31T16:44:15;13.70;99.90
35920;DHT22;36160;53.370;-6.196;2022-10-31T16:46:42;13.70;99.90
35920;DHT22;36160;53.370;-6.196;2022-10-31T16:49:09;13.60;99.90
35920;DHT22;36160;53.370;-6.196;2022-10-31T16:51:35;13.60;99.90
35920;DHT22;36160;53.370;-6.196;2022-10-31T16:54:00;13.70;99.90
35920;DHT22;36160;53.370;-6.196;2022-10-31T16:56:29;13.70;99.90
35920;DHT22;36160;53.370;-6.196;2022-10-31T16:58:57;13.70;99.90
35920;DHT22;36160;53.370;-6.196;2022-10-31T17:01:24;13.80;99.90
35920;DHT22;36160;53.370;-6.196;2022-10-31T17:03:49;13.80;99.90
35920;DHT22;36160;53.370;-6.196;2022-10-31T17:06:15;13.80;99.90
35920;DHT22;36160;53.370;-6.196;2022-10-31T17:08:41;13.80;99.90
35920;DHT22;36160;53.370;-6.196;2022-10-31T17:11:13;13.70;99.90
35920;DHT22;36160;53.370;-6.196;2022-10-31T17:13:40;13.80;99.90
35920;DHT22;36160;53.370;-6.196;2022-10-31T17:16:06;13.80;99.90
35920;DHT22;36160;53.370;-6.196;2022-10-31T17:18:32;13.90;99.90
35920;DHT22;36160;53.370;-6.196;2022-10-31T17:21:00;13.80;99.90
35920;DHT22;36160;53.370;-6.196;2022-10-31T17:23:26;13.70;99.90
35920;DHT22;36160;53.370;-6.196;2022-10-31T17:25:53;13.70;99.90
35920;DHT22;36160;53.370;-6.196;2022-10-31T17:28:18;13.70;99.90
35920;DHT22;36160;53.370;-6.196;2022-10-31T17:30:44;13.90;99.90
35920;DHT22;36160;53.370;-6.196;2022-10-31T17:33:15;13.70;99.90
35920;DHT22;36160;53.370;-6.196;2022-10-31T17:35:42;13.80;99.90
35920;DHT22;36160;53.370;-6.196;2022-10-31T17:38:09;13.70;99.90
35920;DHT22;36160;53.370;-6.196;2022-10-31T17:40:36;13.70;99.90
35920;DHT22;36160;53.370;-6.196;2022-10-31T17:43:02;13.90;99.90
35920;DHT22;36160;53.370;-6.196;2022-10-31T17:45:27;13.80;99.90
35920;DHT22;36160;53.370;-6.196;2022-10-31T17:47:53;13.80;99.90
35920;DHT22;36160;53.370;-6.196;2022-10-31T17:50:21;13.80;99.90
35920;DHT22;36160;53.370;-6.196;2022-10-31T17:52:47;13.90;99.90
35920;DHT22;36160;53.370;-6.196;2022-10-31T17:55:13;13.80;99.90
35920;DHT22;36160;53.370;-6.196;2022-10-31T17:57:39;13.90;99.90
35920;DHT22;36160;53.370;-6.196;2022-10-31T18:00:07;14.00;99.90
35920;DHT22;36160;53.370;-6.196;2022-10-31T18:02:35;14.00;99.90
35920;DHT22;36160;53.370;-6.196;2022-10-31T18:05:01;14.00;99.90
35920;DHT22;36160;53.370;-6.196;2022-10-31T18:07:27;14.00;99.90
35920;DHT22;36160;53.370;-6.196;2022-10-31T18:09:53;14.00;99.90